• Join FlightAware (Why Join?)
  • Login
  • US Flag 
02:23PM EDT


 

Airport Tracker/Info


-or-


 

Live Flight TrackerFlight Track Log ✈ JIA2394 ✈ 28-Jun-2013 ✈ KSAV - KDCA

Flight Track Log - Related Links

Times and Time Zones

All times are in EDT time to prevent confusion due to time zone crossing. See the JIA2394 flight status page for this flight to view local times or setup timezone preferences in your user account.

Time Position Orientation Groundspeed Altitude Reporting Facility
EDT Latitude Longitude Course Direction KTS MPH feet Rate Location/Type
11:20AM 32.1422 -81.3272 53° Northeast 205 236 4,800  Level Jacksonville Center
11:21AM 32.2908 -80.9490 50° Northeast  Level FlightAware Approximate
11:21AM 32.1872 -81.2600 52° Northeast 182 209 7,000  Level Jacksonville Center
11:22AM 32.3503 -80.8639 50° Northeast  Level FlightAware Approximate
11:22AM 32.2156 -81.1761 68° East 223 257 9,300  Level Jacksonville Center
11:23AM 32.4091 -80.7780 52° Northeast  Level FlightAware Approximate
11:23AM 32.2814 -81.1133 39° Northeast 276 318 11,200  Level Jacksonville Center
11:24AM 32.4670 -80.6912 52° Northeast  Level FlightAware Approximate
11:24AM 32.3433 -81.0606 36° Northeast 297 342 12,600  Level Jacksonville Center
11:25AM 32.5236 -80.6031 53° Northeast  Level FlightAware Approximate
11:25AM 32.4256 -80.9803 39° Northeast 329 379 13,600  Level Jacksonville Center
11:26AM 32.5058 -80.9094 37° Northeast 353 406 14,600 1,020 Climbing Jacksonville Center
11:27AM 32.5903 -80.8339 37° Northeast 366 421 15,700 1,020 Climbing Jacksonville Center
11:28AM 32.6744 -80.7553 38° Northeast 366 421 16,700 960 Climbing Jacksonville Center
11:29AM 32.7608 -80.6792 37° Northeast 371 427 17,700 1,020 Climbing Jacksonville Center
11:30AM 32.8431 -80.6031 38° Northeast 371 427 18,800 1,020 Climbing Jacksonville Center
11:31AM 32.9253 -80.5267 38° Northeast 371 427 19,800 960 Climbing Jacksonville Center
11:32AM 33.0114 -80.4475 38° Northeast 376 433 20,800 960 Climbing Jacksonville Center
11:33AM 33.0933 -80.3711 38° Northeast 376 433 21,800 960 Climbing Jacksonville Center
11:34AM 33.1772 -80.2917 38° Northeast 383 441 22,800 900 Climbing Jacksonville Center
11:35AM 33.2531 -80.2250 36° Northeast 378 435 23,700 900 Climbing Jacksonville Center
11:36AM 33.3369 -80.1453 38° Northeast 378 435 24,700 600 Climbing Jacksonville Center
11:37AM 33.4186 -80.0681 38° Northeast 373 429 25,000 120 Climbing Jacksonville Center
11:38AM 33.5086 -79.9856 37° Northeast 387 445 25,000  Level Jacksonville Center
11:39AM 33.6006 -79.8978 38° Northeast 402 463 25,000  Level Jacksonville Center
11:40AM 33.6922 -79.8097 39° Northeast 413 475 25,000  Level Jacksonville Center
11:41AM 33.7842 -79.7242 38° Northeast 418 481 25,000  Level Jacksonville Center
11:42AM 33.8758 -79.6358 39° Northeast 418 481 25,000  Level Jacksonville Center
11:43AM 33.9694 -79.5472 38° Northeast 418 481 25,000  Level Jacksonville Center
11:45AM 34.1711 -79.3544 38° Northeast 417 480 25,000  Level Washington Center
11:46AM 34.2783 -79.2586 36° Northeast 423 487 25,000  Level Washington Center
11:47AM 34.3847 -79.1956 26° Northeast 428 493 25,000  Level Washington Center
11:48AM 34.4886 -79.1347 26° Northeast 422 486 25,000  Level Washington Center
11:49AM 34.5947 -79.0736 25° Northeast 412 474 25,000  Level Washington Center
11:50AM 34.7031 -79.0125 25° Northeast 412 474 25,000  Level Washington Center
11:51AM 34.8089 -78.9514 25° Northeast 412 474 25,000  Level Washington Center
11:52AM 34.9150 -78.8872 26° Northeast 412 474 25,000  Level Washington Center
11:53AM 35.0233 -78.8258 25° Northeast 417 480 25,000  Level Washington Center
11:54AM 35.1333 -78.7617 26° Northeast 417 480 25,000  Level Washington Center
11:55AM 35.2394 -78.6997 25° Northeast 417 480 25,000  Level Washington Center
11:56AM 35.3367 -78.6447 25° Northeast 422 486 25,000  Level Washington Center
11:57AM 35.4556 -78.5728 26° Northeast 430 495 25,000  Level Washington Center
11:58AM 35.5528 -78.5128 27° Northeast 430 495 25,000  Level Washington Center
11:59AM 35.6631 -78.4478 26° Northeast 431 496 25,000  Level Washington Center
12:00PM 35.7708 -78.3850 25° Northeast 425 489 25,000  Level Washington Center
12:01PM 35.8808 -78.3197 26° Northeast 425 489 25,000  Level Washington Center
12:02PM 35.9908 -78.2517 27° Northeast 430 495 25,000  Level Washington Center
12:03PM 36.1008 -78.1883 25° Northeast 430 495 25,000  Level Washington Center
12:04PM 36.2108 -78.1225 26° Northeast 430 495 25,000  Level Washington Center
12:05PM 36.3206 -78.0539 27° Northeast 430 495 25,000  Level Washington Center
12:06PM 36.4389 -77.9803 27° Northeast 430 495 25,000  Level Washington Center
12:07PM 36.5489 -77.9136 26° Northeast 430 495 25,000  Level Washington Center
12:08PM 36.6628 -77.8447 26° Northeast 435 501 25,000  Level Washington Center
12:09PM 36.7725 -77.7753 27° Northeast 435 501 25,000 -420 Level Washington Center
12:10PM 36.8842 -77.7083 26° Northeast 435 501 24,200 -900 Descending Washington Center
12:11PM 36.9983 -77.6358 27° Northeast 435 501 23,200 -1,020 Descending Washington Center
12:12PM 37.1058 -77.5686 27° Northeast 430 495 22,200 -660 Descending Washington Center
12:13PM 37.2069 -77.5058 26° Northeast 417 480 22,000 -120 Descending Washington Center
12:14PM 37.3039 -77.4456 26° Northeast 400 460 22,000  Level Washington Center
12:15PM 37.4050 -77.3828 26° Northeast 395 455 22,000 -600 Level Washington Center
12:16PM 37.5058 -77.3222 25° Northeast 390 449 20,800 -1,380 Descending Washington Center
12:17PM 37.6106 -77.2983 10° North 377 434 19,300 -1,680 Descending Washington Center
12:18PM 37.7089 -77.2797 North 365 420 17,500 -1,680 Descending Washington Center
12:19PM 37.8156 -77.2558 10° North 365 420 16,000 -1,500 Descending Washington Center
12:20PM 37.9158 -77.2342 10° North 376 433 14,500 -1,500 Descending Washington Center
12:21PM 38.0206 -77.2128 North 371 427 13,000 -1,440 Descending Washington Center
12:22PM 38.1083 -77.1989 North 365 420 11,600 -1,500 Descending Washington Center
12:23PM 38.2169 -77.1694 12° North 360 414 10,100 -840 Descending Washington Center
12:24PM 38.3069 -77.1556 North 354 407 10,000 -60 Descending Washington Center
12:25PM 38.4011 -77.1364 North 354 407 10,000 -180 Level Washington Center
12:26PM 38.4950 -77.1169 North 354 407 9,700 -720 Descending Washington Center
12:27PM 38.5767 -77.1000 North 326 375 8,600 -1,080 Descending Washington Center
12:28PM 38.6519 -77.0803 12° North 296 341 7,600 -1,020 Descending Washington Center
12:29PM 38.7292 -77.0658 North 277 319 6,600 -840 Descending Washington Center
12:30PM 38.7978 -77.0939 342° North 262 302 6,000 -660 Descending Washington Center
12:31PM 38.8492 -77.1431 323° Northwest 246 283 5,400 -540 Descending Washington Center
12:32PM 38.8903 -77.1944 316° Northwest 221 254 5,000 -840 Descending Washington Center
12:34PM 38.9500 -77.2167 344° North 198 228 3,500 -1,140 Descending Potomac TRACON